sensor_id;sensor_type;location;lat;lon;timestamp;temperature;humidity
13186;DHT22;6658;53.080;7.428;2024-03-23T00:55:12;6.20;99.90
13186;DHT22;6658;53.080;7.428;2024-03-23T00:57:38;6.30;99.90
13186;DHT22;6658;53.080;7.428;2024-03-23T01:00:04;6.30;99.90
13186;DHT22;6658;53.080;7.428;2024-03-23T01:02:32;6.20;99.90
13186;DHT22;6658;53.080;7.428;2024-03-23T01:04:58;6.20;99.90
13186;DHT22;6658;53.080;7.428;2024-03-23T01:07:23;6.20;99.90
13186;DHT22;6658;53.080;7.428;2024-03-23T01:09:49;6.20;99.90
13186;DHT22;6658;53.080;7.428;2024-03-23T01:12:15;6.20;99.90
13186;DHT22;6658;53.080;7.428;2024-03-23T01:14:40;6.20;99.90
13186;DHT22;6658;53.080;7.428;2024-03-23T01:17:06;6.20;99.90
13186;DHT22;6658;53.080;7.428;2024-03-23T01:19:32;6.20;99.90
13186;DHT22;6658;53.080;7.428;2024-03-23T01:21:57;6.20;99.90
13186;DHT22;6658;53.080;7.428;2024-03-23T01:24:23;6.20;99.90
13186;DHT22;6658;53.080;7.428;2024-03-23T01:26:49;6.20;99.90
13186;DHT22;6658;53.080;7.428;2024-03-23T01:29:14;6.20;99.90
13186;DHT22;6658;53.080;7.428;2024-03-23T01:31:40;6.10;99.90
13186;DHT22;6658;53.080;7.428;2024-03-23T01:34:05;6.10;99.90
13186;DHT22;6658;53.080;7.428;2024-03-23T01:36:31;6.10;99.90
13186;DHT22;6658;53.080;7.428;2024-03-23T01:38:57;6.10;99.90
13186;DHT22;6658;53.080;7.428;2024-03-23T01:41:24;6.00;99.90
13186;DHT22;6658;53.080;7.428;2024-03-23T01:43:50;6.00;99.90
13186;DHT22;6658;53.080;7.428;2024-03-23T01:46:16;6.00;99.90
13186;DHT22;6658;53.080;7.428;2024-03-23T01:48:42;6.00;99.90
13186;DHT22;6658;53.080;7.428;2024-03-23T01:51:08;5.90;99.90
13186;DHT22;6658;53.080;7.428;2024-03-23T01:53:34;5.90;99.90
13186;DHT22;6658;53.080;7.428;2024-03-23T01:56:00;5.80;99.90
13186;DHT22;6658;53.080;7.428;2024-03-23T01:58:27;5.70;99.90
13186;DHT22;6658;53.080;7.428;2024-03-23T02:04:16;5.70;99.90
13186;DHT22;6658;53.080;7.428;2024-03-23T02:06:42;5.60;99.90
13186;DHT22;6658;53.080;7.428;2024-03-23T02:09:07;5.60;99.90
13186;DHT22;6658;53.080;7.428;2024-03-23T02:11:33;5.60;99.90
13186;DHT22;6658;53.080;7.428;2024-03-23T02:13:59;5.50;99.90
13186;DHT22;6658;53.080;7.428;2024-03-23T02:16:24;5.50;99.90
13186;DHT22;6658;53.080;7.428;2024-03-23T02:18:50;5.40;99.90
13186;DHT22;6658;53.080;7.428;2024-03-23T02:21:16;5.30;99.90
13186;DHT22;6658;53.080;7.428;2024-03-23T02:23:41;5.30;99.90
13186;DHT22;6658;53.080;7.428;2024-03-23T02:26:07;5.20;99.90
13186;DHT22;6658;53.080;7.428;2024-03-23T02:28:33;5.20;99.90
13186;DHT22;6658;53.080;7.428;2024-03-23T02:30:58;5.10;99.90
13186;DHT22;6658;53.080;7.428;2024-03-23T02:33:25;5.00;99.90
13186;DHT22;6658;53.080;7.428;2024-03-23T02:35:56;4.90;99.90
13186;DHT22;6658;53.080;7.428;2024-03-23T02:38:22;4.90;99.90
13186;DHT22;6658;53.080;7.428;2024-03-23T02:40:47;4.80;99.90
13186;DHT22;6658;53.080;7.428;2024-03-23T02:43:13;4.70;99.90
13186;DHT22;6658;53.080;7.428;2024-03-23T02:45:39;4.70;99.90
13186;DHT22;6658;53.080;7.428;2024-03-23T02:48:05;4.60;99.90
13186;DHT22;6658;53.080;7.428;2024-03-23T02:50:30;4.60;99.90
13186;DHT22;6658;53.080;7.428;2024-03-23T02:52:56;4.60;99.90
13186;DHT22;6658;53.080;7.428;2024-03-23T02:55:22;4.70;99.90
13186;DHT22;6658;53.080;7.428;2024-03-23T02:57:47;4.70;99.90
13186;DHT22;6658;53.080;7.428;2024-03-23T03:00:13;4.80;99.90
13186;DHT22;6658;53.080;7.428;2024-03-23T03:02:39;4.70;99.90
13186;DHT22;6658;53.080;7.428;2024-03-23T03:05:05;4.70;99.90
13186;DHT22;6658;53.080;7.428;2024-03-23T03:07:32;4.70;99.90
13186;DHT22;6658;53.080;7.428;2024-03-23T03:09:57;4.70;99.90
13186;DHT22;6658;53.080;7.428;2024-03-23T03:12:23;4.70;99.90
13186;DHT22;6658;53.080;7.428;2024-03-23T03:14:49;4.70;99.90
13186;DHT22;6658;53.080;7.428;2024-03-23T03:17:14;4.70;99.90
13186;DHT22;6658;53.080;7.428;2024-03-23T03:19:40;4.70;99.90
13186;DHT22;6658;53.080;7.428;2024-03-23T03:22:06;4.70;99.90
13186;DHT22;6658;53.080;7.428;2024-03-23T03:24:31;4.70;99.90
13186;DHT22;6658;53.080;7.428;2024-03-23T03:26:57;4.70;99.90
13186;DHT22;6658;53.080;7.428;2024-03-23T03:29:23;4.60;99.90
13186;DHT22;6658;53.080;7.428;2024-03-23T03:31:50;4.60;99.90
13186;DHT22;6658;53.080;7.428;2024-03-23T03:34:15;4.60;99.90
13186;DHT22;6658;53.080;7.428;2024-03-23T03:36:41;4.60;99.90
13186;DHT22;6658;53.080;7.428;2024-03-23T03:39:07;4.50;99.90
13186;DHT22;6658;53.080;7.428;2024-03-23T03:41:32;4.50;99.90
13186;DHT22;6658;53.080;7.428;2024-03-23T03:43:58;4.50;99.90
13186;DHT22;6658;53.080;7.428;2024-03-23T03:46:28;4.50;99.90
13186;DHT22;6658;53.080;7.428;2024-03-23T03:48:56;4.50;99.90
13186;DHT22;6658;53.080;7.428;2024-03-23T03:51:22;4.60;99.90
13186;DHT22;6658;53.080;7.428;2024-03-23T03:53:48;4.60;99.90
13186;DHT22;6658;53.080;7.428;2024-03-23T03:56:13;4.60;99.90
13186;DHT22;6658;53.080;7.428;2024-03-23T03:58:39;4.60;99.90
13186;DHT22;6658;53.080;7.428;2024-03-23T04:01:05;4.60;99.90
13186;DHT22;6658;53.080;7.428;2024-03-23T04:03:31;4.60;99.90
13186;DHT22;6658;53.080;7.428;2024-03-23T04:05:57;4.60;99.90
13186;DHT22;6658;53.080;7.428;2024-03-23T04:08:23;4.60;99.90
13186;DHT22;6658;53.080;7.428;2024-03-23T04:10:49;4.60;99.90
13186;DHT22;6658;53.080;7.428;2024-03-23T04:13:15;4.60;99.90
13186;DHT22;6658;53.080;7.428;2024-03-23T04:15:44;4.60;99.90
13186;DHT22;6658;53.080;7.428;2024-03-23T04:18:10;4.60;99.90
13186;DHT22;6658;53.080;7.428;2024-03-23T04:20:35;4.60;99.90
13186;DHT22;6658;53.080;7.428;2024-03-23T04:23:01;4.50;99.90
13186;DHT22;6658;53.080;7.428;2024-03-23T04:25:27;4.50;99.90
13186;DHT22;6658;53.080;7.428;2024-03-23T04:27:52;4.50;99.90
13186;DHT22;6658;53.080;7.428;2024-03-23T04:30:18;4.40;99.90
13186;DHT22;6658;53.080;7.428;2024-03-23T04:32:45;4.40;99.90
13186;DHT22;6658;53.080;7.428;2024-03-23T04:35:10;4.40;99.90
13186;DHT22;6658;53.080;7.428;2024-03-23T04:37:39;4.40;99.90
13186;DHT22;6658;53.080;7.428;2024-03-23T04:40:08;4.30;99.90
13186;DHT22;6658;53.080;7.428;2024-03-23T04:42:34;4.30;99.90
13186;DHT22;6658;53.080;7.428;2024-03-23T04:45:00;4.30;99.90
13186;DHT22;6658;53.080;7.428;2024-03-23T04:47:26;4.20;99.90
13186;DHT22;6658;53.080;7.428;2024-03-23T04:49:52;4.20;99.90
13186;DHT22;6658;53.080;7.428;2024-03-23T04:52:18;4.20;99.90
13186;DHT22;6658;53.080;7.428;2024-03-23T04:54:44;4.10;99.90
13186;DHT22;6658;53.080;7.428;2024-03-23T04:57:11;4.10;99.90
13186;DHT22;6658;53.080;7.428;2024-03-23T04:59:37;4.20;99.90
13186;DHT22;6658;53.080;7.428;2024-03-23T05:02:02;4.10;99.90
13186;DHT22;6658;53.080;7.428;2024-03-23T05:04:28;4.10;99.90
13186;DHT22;6658;53.080;7.428;2024-03-23T05:06:54;4.10;99.90
13186;DHT22;6658;53.080;7.428;2024-03-23T05:09:20;4.10;99.90
13186;DHT22;6658;53.080;7.428;2024-03-23T05:11:45;4.20;99.90
13186;DHT22;6658;53.080;7.428;2024-03-23T05:14:13;4.10;99.90
13186;DHT22;6658;53.080;7.428;2024-03-23T05:16:39;4.10;99.90
13186;DHT22;6658;53.080;7.428;2024-03-23T05:19:05;4.10;99.90
13186;DHT22;6658;53.080;7.428;2024-03-23T05:21:31;4.10;99.90
13186;DHT22;6658;53.080;7.428;2024-03-23T05:23:56;4.10;99.90
13186;DHT22;6658;53.080;7.428;2024-03-23T05:26:22;4.10;99.90
13186;DHT22;6658;53.080;7.428;2024-03-23T05:28:48;4.10;99.90
13186;DHT22;6658;53.080;7.428;2024-03-23T05:31:28;4.10;99.90
13186;DHT22;6658;53.080;7.428;2024-03-23T05:33:54;4.20;99.90
13186;DHT22;6658;53.080;7.428;2024-03-23T05:36:20;4.20;99.90
13186;DHT22;6658;53.080;7.428;2024-03-23T05:38:46;4.20;99.90
13186;DHT22;6658;53.080;7.428;2024-03-23T05:41:12;4.20;99.90
13186;DHT22;6658;53.080;7.428;2024-03-23T05:43:38;4.20;99.90
13186;DHT22;6658;53.080;7.428;2024-03-23T05:46:03;4.30;99.90
13186;DHT22;6658;53.080;7.428;2024-03-23T05:48:33;4.30;99.90
13186;DHT22;6658;53.080;7.428;2024-03-23T05:50:59;4.30;99.90
13186;DHT22;6658;53.080;7.428;2024-03-23T05:53:25;4.30;99.90
13186;DHT22;6658;53.080;7.428;2024-03-23T05:55:51;4.40;99.90
13186;DHT22;6658;53.080;7.428;2024-03-23T05:58:19;4.50;99.90
13186;DHT22;6658;53.080;7.428;2024-03-23T06:00:45;4.50;99.90
13186;DHT22;6658;53.080;7.428;2024-03-23T06:03:11;4.60;99.90
13186;DHT22;6658;53.080;7.428;2024-03-23T06:05:37;4.60;99.90
13186;DHT22;6658;53.080;7.428;2024-03-23T06:08:04;4.70;99.90
13186;DHT22;6658;53.080;7.428;2024-03-23T06:10:30;4.80;99.90
13186;DHT22;6658;53.080;7.428;2024-03-23T06:12:57;4.90;99.90
13186;DHT22;6658;53.080;7.428;2024-03-23T06:15:24;5.10;99.90
13186;DHT22;6658;53.080;7.428;2024-03-23T06:17:49;5.20;99.90
13186;DHT22;6658;53.080;7.428;2024-03-23T06:20:15;5.20;99.90
13186;DHT22;6658;53.080;7.428;2024-03-23T06:22:41;5.30;99.90
13186;DHT22;6658;53.080;7.428;2024-03-23T06:25:07;5.30;99.90
13186;DHT22;6658;53.080;7.428;2024-03-23T06:27:33;5.30;99.90
13186;DHT22;6658;53.080;7.428;2024-03-23T06:29:59;5.30;99.90
13186;DHT22;6658;53.080;7.428;2024-03-23T06:32:25;5.40;99.90
13186;DHT22;6658;53.080;7.428;2024-03-23T06:34:51;5.50;99.90
13186;DHT22;6658;53.080;7.428;2024-03-23T06:37:16;5.60;99.90
13186;DHT22;6658;53.080;7.428;2024-03-23T06:39:42;5.90;99.90
13186;DHT22;6658;53.080;7.428;2024-03-23T06:42:08;6.10;99.90
13186;DHT22;6658;53.080;7.428;2024-03-23T06:44:33;6.30;99.90
13186;DHT22;6658;53.080;7.428;2024-03-23T06:46:59;6.50;99.90
13186;DHT22;6658;53.080;7.428;2024-03-23T06:49:25;6.70;99.90
13186;DHT22;6658;53.080;7.428;2024-03-23T06:51:51;6.90;99.90
13186;DHT22;6658;53.080;7.428;2024-03-23T06:54:17;7.10;99.90
13186;DHT22;6658;53.080;7.428;2024-03-23T06:56:46;7.30;99.90
13186;DHT22;6658;53.080;7.428;2024-03-23T06:59:12;7.40;99.90
13186;DHT22;6658;53.080;7.428;2024-03-23T07:01:37;7.50;99.90
13186;DHT22;6658;53.080;7.428;2024-03-23T07:04:04;7.60;99.90
13186;DHT22;6658;53.080;7.428;2024-03-23T07:06:30;7.80;99.90
13186;DHT22;6658;53.080;7.428;2024-03-23T07:08:56;7.90;99.90
13186;DHT22;6658;53.080;7.428;2024-03-23T07:11:23;8.10;99.90
13186;DHT22;6658;53.080;7.428;2024-03-23T07:13:55;8.10;99.90
13186;DHT22;6658;53.080;7.428;2024-03-23T07:16:20;7.90;99.90
13186;DHT22;6658;53.080;7.428;2024-03-23T07:18:46;7.80;99.90
13186;DHT22;6658;53.080;7.428;2024-03-23T07:21:14;7.90;99.90
13186;DHT22;6658;53.080;7.428;2024-03-23T07:23:42;8.20;99.90
13186;DHT22;6658;53.080;7.428;2024-03-23T07:26:10;8.50;99.90
13186;DHT22;6658;53.080;7.428;2024-03-23T07:28:36;8.70;99.90
13186;DHT22;6658;53.080;7.428;2024-03-23T07:31:07;8.60;99.90
13186;DHT22;6658;53.080;7.428;2024-03-23T07:33:37;8.40;99.90
13186;DHT22;6658;53.080;7.428;2024-03-23T07:36:04;8.40;99.90
13186;DHT22;6658;53.080;7.428;2024-03-23T07:38:31;8.30;99.90
13186;DHT22;6658;53.080;7.428;2024-03-23T07:41:08;8.10;99.90
13186;DHT22;6658;53.080;7.428;2024-03-23T07:43:34;7.80;99.90
13186;DHT22;6658;53.080;7.428;2024-03-23T07:46:00;7.60;99.90
13186;DHT22;6658;53.080;7.428;2024-03-23T07:48:27;7.50;99.90
13186;DHT22;6658;53.080;7.428;2024-03-23T07:51:03;7.40;99.90
13186;DHT22;6658;53.080;7.428;2024-03-23T07:53:30;7.40;99.90
13186;DHT22;6658;53.080;7.428;2024-03-23T07:56:08;7.40;99.90
13186;DHT22;6658;53.080;7.428;2024-03-23T07:58:35;7.40;99.90
13186;DHT22;6658;53.080;7.428;2024-03-23T08:01:09;7.50;99.90
13186;DHT22;6658;53.080;7.428;2024-03-23T08:03:36;7.60;99.90
13186;DHT22;6658;53.080;7.428;2024-03-23T08:06:12;7.80;99.90
13186;DHT22;6658;53.080;7.428;2024-03-23T08:08:39;8.20;99.90
13186;DHT22;6658;53.080;7.428;2024-03-23T08:11:05;8.50;99.90
13186;DHT22;6658;53.080;7.428;2024-03-23T08:13:32;8.80;99.90
13186;DHT22;6658;53.080;7.428;2024-03-23T08:15:59;9.30;99.90
13186;DHT22;6658;53.080;7.428;2024-03-23T08:18:25;9.90;99.90
13186;DHT22;6658;53.080;7.428;2024-03-23T08:21:00;10.70;99.90
13186;DHT22;6658;53.080;7.428;2024-03-23T08:23:31;11.10;99.90
13186;DHT22;6658;53.080;7.428;2024-03-23T08:26:06;11.40;99.90
13186;DHT22;6658;53.080;7.428;2024-03-23T08:28:32;11.50;99.90
13186;DHT22;6658;53.080;7.428;2024-03-23T08:31:01;11.90;99.90
13186;DHT22;6658;53.080;7.428;2024-03-23T08:33:28;12.10;99.90
13186;DHT22;6658;53.080;7.428;2024-03-23T08:35:58;11.80;99.90
13186;DHT22;6658;53.080;7.428;2024-03-23T08:38:25;11.80;99.90
13186;DHT22;6658;53.080;7.428;2024-03-23T08:41:02;11.90;99.90
13186;DHT22;6658;53.080;7.428;2024-03-23T08:43:36;12.30;99.90
13186;DHT22;6658;53.080;7.428;2024-03-23T08:46:15;12.70;99.90
13186;DHT22;6658;53.080;7.428;2024-03-23T08:51:12;13.40;99.90
13186;DHT22;6658;53.080;7.428;2024-03-23T08:53:38;13.30;99.90
13186;DHT22;6658;53.080;7.428;2024-03-23T08:56:05;13.20;99.90
13186;DHT22;6658;53.080;7.428;2024-03-23T08:58:32;12.60;99.90
13186;DHT22;6658;53.080;7.428;2024-03-23T09:01:12;12.00;99.90
13186;DHT22;6658;53.080;7.428;2024-03-23T09:03:41;11.70;99.90
13186;DHT22;6658;53.080;7.428;2024-03-23T09:06:08;11.70;99.90
13186;DHT22;6658;53.080;7.428;2024-03-23T09:08:34;11.40;99.90
13186;DHT22;6658;53.080;7.428;2024-03-23T09:11:05;10.90;99.90
13186;DHT22;6658;53.080;7.428;2024-03-23T09:13:37;10.30;99.90
13186;DHT22;6658;53.080;7.428;2024-03-23T09:16:04;9.90;99.90
13186;DHT22;6658;53.080;7.428;2024-03-23T09:18:34;9.80;99.90
13186;DHT22;6658;53.080;7.428;2024-03-23T09:21:01;10.50;99.90
13186;DHT22;6658;53.080;7.428;2024-03-23T09:23:26;11.40;99.90
13186;DHT22;6658;53.080;7.428;2024-03-23T09:25:52;12.30;99.90
13186;DHT22;6658;53.080;7.428;2024-03-23T09:28:18;12.70;99.90
13186;DHT22;6658;53.080;7.428;2024-03-23T09:30:43;12.50;99.90
13186;DHT22;6658;53.080;7.428;2024-03-23T09:33:12;12.40;99.90
13186;DHT22;6658;53.080;7.428;2024-03-23T09:35:39;12.50;99.90
13186;DHT22;6658;53.080;7.428;2024-03-23T09:38:05;12.40;99.90
13186;DHT22;6658;53.080;7.428;2024-03-23T09:40:33;12.80;99.90
13186;DHT22;6658;53.080;7.428;2024-03-23T09:42:58;12.90;99.90
13186;DHT22;6658;53.080;7.428;2024-03-23T09:45:29;13.10;99.90
13186;DHT22;6658;53.080;7.428;2024-03-23T09:47:55;12.80;99.90
13186;DHT22;6658;53.080;7.428;2024-03-23T09:50:22;12.10;99.90
13186;DHT22;6658;53.080;7.428;2024-03-23T09:52:48;12.40;99.90
13186;DHT22;6658;53.080;7.428;2024-03-23T09:55:14;13.90;99.90
13186;DHT22;6658;53.080;7.428;2024-03-23T09:57:40;15.20;99.90
13186;DHT22;6658;53.080;7.428;2024-03-23T10:00:06;15.40;99.90
13186;DHT22;6658;53.080;7.428;2024-03-23T10:02:34;14.90;99.90
13186;DHT22;6658;53.080;7.428;2024-03-23T10:05:00;14.40;99.90
13186;DHT22;6658;53.080;7.428;2024-03-23T10:07:26;14.00;99.90
13186;DHT22;6658;53.080;7.428;2024-03-23T10:09:54;14.40;99.90
13186;DHT22;6658;53.080;7.428;2024-03-23T10:12:20;14.80;99.90
13186;DHT22;6658;53.080;7.428;2024-03-23T10:14:46;14.20;99.90
13186;DHT22;6658;53.080;7.428;2024-03-23T10:17:20;14.40;99.90
13186;DHT22;6658;53.080;7.428;2024-03-23T10:19:47;13.60;99.90
13186;DHT22;6658;53.080;7.428;2024-03-23T10:22:19;12.80;99.90
13186;DHT22;6658;53.080;7.428;2024-03-23T10:24:45;12.20;99.90
13186;DHT22;6658;53.080;7.428;2024-03-23T10:27:21;11.80;99.90
13186;DHT22;6658;53.080;7.428;2024-03-23T10:29:50;11.50;99.90
13186;DHT22;6658;53.080;7.428;2024-03-23T10:32:17;11.50;99.90
13186;DHT22;6658;53.080;7.428;2024-03-23T10:34:43;12.80;99.90
13186;DHT22;6658;53.080;7.428;2024-03-23T10:37:10;13.90;99.90
13186;DHT22;6658;53.080;7.428;2024-03-23T10:39:37;14.10;99.90
13186;DHT22;6658;53.080;7.428;2024-03-23T10:42:05;14.20;99.90
13186;DHT22;6658;53.080;7.428;2024-03-23T10:44:32;13.60;99.90
13186;DHT22;6658;53.080;7.428;2024-03-23T10:46:58;13.30;99.90
13186;DHT22;6658;53.080;7.428;2024-03-23T10:49:33;12.80;99.90
13186;DHT22;6658;53.080;7.428;2024-03-23T10:52:03;12.50;99.90
13186;DHT22;6658;53.080;7.428;2024-03-23T10:54:30;12.60;99.90
13186;DHT22;6658;53.080;7.428;2024-03-23T10:57:02;12.60;99.90
13186;DHT22;6658;53.080;7.428;2024-03-23T10:59:30;12.30;99.90
13186;DHT22;6658;53.080;7.428;2024-03-23T11:01:57;11.80;99.90
13186;DHT22;6658;53.080;7.428;2024-03-23T11:06:57;8.30;99.90
13186;DHT22;6658;53.080;7.428;2024-03-23T11:15:05;6.10;99.90
13186;DHT22;6658;53.080;7.428;2024-03-23T11:17:31;5.90;99.90
13186;DHT22;6658;53.080;7.428;2024-03-23T11:19:58;5.80;99.90
13186;DHT22;6658;53.080;7.428;2024-03-23T11:22:44;5.90;99.90
13186;DHT22;6658;53.080;7.428;2024-03-23T11:25:20;6.20;99.90
13186;DHT22;6658;53.080;7.428;2024-03-23T11:27:47;6.60;99.90
13186;DHT22;6658;53.080;7.428;2024-03-23T11:30:17;6.90;99.90
13186;DHT22;6658;53.080;7.428;2024-03-23T11:32:47;7.30;99.90
13186;DHT22;6658;53.080;7.428;2024-03-23T11:35:33;7.60;99.90
13186;DHT22;6658;53.080;7.428;2024-03-23T11:38:12;7.90;99.90
13186;DHT22;6658;53.080;7.428;2024-03-23T11:40:43;8.00;99.90
13186;DHT22;6658;53.080;7.428;2024-03-23T11:43:14;8.20;99.90
13186;DHT22;6658;53.080;7.428;2024-03-23T11:45:45;8.40;99.90
13186;DHT22;6658;53.080;7.428;2024-03-23T11:48:15;8.50;99.90
13186;DHT22;6658;53.080;7.428;2024-03-23T11:50:46;8.70;99.90
13186;DHT22;6658;53.080;7.428;2024-03-23T11:55:45;8.90;99.90
13186;DHT22;6658;53.080;7.428;2024-03-23T11:58:12;8.90;99.90
13186;DHT22;6658;53.080;7.428;2024-03-23T12:00:38;8.80;99.90
13186;DHT22;6658;53.080;7.428;2024-03-23T12:03:04;8.80;99.90
13186;DHT22;6658;53.080;7.428;2024-03-23T12:05:34;8.80;99.90
13186;DHT22;6658;53.080;7.428;2024-03-23T12:08:21;9.00;99.90
13186;DHT22;6658;53.080;7.428;2024-03-23T12:10:51;9.20;99.90
13186;DHT22;6658;53.080;7.428;2024-03-23T12:13:19;9.10;99.90
13186;DHT22;6658;53.080;7.428;2024-03-23T12:15:46;9.10;99.90
13186;DHT22;6658;53.080;7.428;2024-03-23T12:18:12;9.10;99.90
13186;DHT22;6658;53.080;7.428;2024-03-23T12:20:38;9.10;99.90
13186;DHT22;6658;53.080;7.428;2024-03-23T12:23:09;9.10;99.90
13186;DHT22;6658;53.080;7.428;2024-03-23T12:25:36;9.10;99.90
13186;DHT22;6658;53.080;7.428;2024-03-23T12:28:02;9.00;99.90
13186;DHT22;6658;53.080;7.428;2024-03-23T12:30:28;9.00;99.90
13186;DHT22;6658;53.080;7.428;2024-03-23T12:32:53;8.90;99.90
13186;DHT22;6658;53.080;7.428;2024-03-23T12:35:19;9.00;99.90
13186;DHT22;6658;53.080;7.428;2024-03-23T12:37:45;9.10;99.90
13186;DHT22;6658;53.080;7.428;2024-03-23T12:40:11;9.20;99.90
13186;DHT22;6658;53.080;7.428;2024-03-23T12:42:36;9.20;99.90
13186;DHT22;6658;53.080;7.428;2024-03-23T12:45:03;9.30;99.90
13186;DHT22;6658;53.080;7.428;2024-03-23T12:47:30;9.30;99.90
13186;DHT22;6658;53.080;7.428;2024-03-23T12:49:56;9.30;99.90
13186;DHT22;6658;53.080;7.428;2024-03-23T12:52:22;9.20;99.90
13186;DHT22;6658;53.080;7.428;2024-03-23T12:54:49;9.20;99.90
13186;DHT22;6658;53.080;7.428;2024-03-23T12:57:15;9.20;99.90
13186;DHT22;6658;53.080;7.428;2024-03-23T12:59:40;9.20;99.90
13186;DHT22;6658;53.080;7.428;2024-03-23T13:02:06;9.10;99.90
13186;DHT22;6658;53.080;7.428;2024-03-23T13:04:32;9.10;99.90
13186;DHT22;6658;53.080;7.428;2024-03-23T13:06:58;8.80;99.90
13186;DHT22;6658;53.080;7.428;2024-03-23T13:09:24;8.50;99.90
13186;DHT22;6658;53.080;7.428;2024-03-23T13:11:49;8.30;99.90
13186;DHT22;6658;53.080;7.428;2024-03-23T13:14:15;8.20;99.90
13186;DHT22;6658;53.080;7.428;2024-03-23T13:16:42;8.20;99.90
13186;DHT22;6658;53.080;7.428;2024-03-23T13:19:08;8.20;99.90
13186;DHT22;6658;53.080;7.428;2024-03-23T13:21:33;8.40;99.90
13186;DHT22;6658;53.080;7.428;2024-03-23T13:23:59;8.60;99.90
13186;DHT22;6658;53.080;7.428;2024-03-23T13:26:25;8.90;99.90
13186;DHT22;6658;53.080;7.428;2024-03-23T13:28:50;9.00;99.90
13186;DHT22;6658;53.080;7.428;2024-03-23T13:31:16;9.00;99.90
13186;DHT22;6658;53.080;7.428;2024-03-23T13:33:42;9.00;99.90
13186;DHT22;6658;53.080;7.428;2024-03-23T13:36:09;8.80;99.90
13186;DHT22;6658;53.080;7.428;2024-03-23T13:38:35;8.60;99.90
13186;DHT22;6658;53.080;7.428;2024-03-23T13:41:01;8.60;99.90
13186;DHT22;6658;53.080;7.428;2024-03-23T13:43:27;8.60;99.90
13186;DHT22;6658;53.080;7.428;2024-03-23T13:45:57;8.60;99.90
13186;DHT22;6658;53.080;7.428;2024-03-23T13:48:24;8.60;99.90
13186;DHT22;6658;53.080;7.428;2024-03-23T13:50:57;8.70;99.90
13186;DHT22;6658;53.080;7.428;2024-03-23T13:53:23;8.80;99.90
13186;DHT22;6658;53.080;7.428;2024-03-23T13:55:49;9.10;99.90
13186;DHT22;6658;53.080;7.428;2024-03-23T13:58:15;9.20;99.90
13186;DHT22;6658;53.080;7.428;2024-03-23T14:00:42;9.20;99.90
13186;DHT22;6658;53.080;7.428;2024-03-23T14:03:11;9.10;99.90
13186;DHT22;6658;53.080;7.428;2024-03-23T14:05:37;8.80;99.90
13186;DHT22;6658;53.080;7.428;2024-03-23T14:08:09;8.50;99.90
13186;DHT22;6658;53.080;7.428;2024-03-23T14:10:35;8.40;99.90
13186;DHT22;6658;53.080;7.428;2024-03-23T14:13:04;8.30;99.90
13186;DHT22;6658;53.080;7.428;2024-03-23T14:15:30;8.40;99.90
13186;DHT22;6658;53.080;7.428;2024-03-23T14:17:57;8.50;99.90
13186;DHT22;6658;53.080;7.428;2024-03-23T14:20:22;8.50;99.90
13186;DHT22;6658;53.080;7.428;2024-03-23T14:22:52;8.60;99.90
13186;DHT22;6658;53.080;7.428;2024-03-23T14:25:18;8.70;99.90
13186;DHT22;6658;53.080;7.428;2024-03-23T14:27:44;8.80;99.90
13186;DHT22;6658;53.080;7.428;2024-03-23T14:30:10;8.80;99.90
13186;DHT22;6658;53.080;7.428;2024-03-23T14:32:37;8.90;99.90
13186;DHT22;6658;53.080;7.428;2024-03-23T14:35:04;9.00;99.90
13186;DHT22;6658;53.080;7.428;2024-03-23T14:37:30;9.00;99.90
13186;DHT22;6658;53.080;7.428;2024-03-23T14:39:56;9.30;99.90
13186;DHT22;6658;53.080;7.428;2024-03-23T14:42:22;9.50;99.90
13186;DHT22;6658;53.080;7.428;2024-03-23T14:44:49;9.70;99.90
13186;DHT22;6658;53.080;7.428;2024-03-23T14:47:15;9.80;99.90
13186;DHT22;6658;53.080;7.428;2024-03-23T14:49:43;10.10;99.90
13186;DHT22;6658;53.080;7.428;2024-03-23T14:52:13;10.20;99.90
13186;DHT22;6658;53.080;7.428;2024-03-23T14:54:39;10.20;99.90
13186;DHT22;6658;53.080;7.428;2024-03-23T14:57:04;10.00;99.90
13186;DHT22;6658;53.080;7.428;2024-03-23T14:59:31;9.50;99.90
13186;DHT22;6658;53.080;7.428;2024-03-23T15:01:57;9.00;99.90
13186;DHT22;6658;53.080;7.428;2024-03-23T15:04:23;8.70;99.90
13186;DHT22;6658;53.080;7.428;2024-03-23T15:06:49;8.50;99.90
13186;DHT22;6658;53.080;7.428;2024-03-23T15:09:16;8.30;99.90
13186;DHT22;6658;53.080;7.428;2024-03-23T15:11:41;8.20;99.90
13186;DHT22;6658;53.080;7.428;2024-03-23T15:14:07;8.20;99.90
13186;DHT22;6658;53.080;7.428;2024-03-23T15:16:33;8.30;99.90
13186;DHT22;6658;53.080;7.428;2024-03-23T15:18:59;8.50;99.90
13186;DHT22;6658;53.080;7.428;2024-03-23T15:21:25;8.70;99.90
13186;DHT22;6658;53.080;7.428;2024-03-23T15:23:51;8.70;99.90
13186;DHT22;6658;53.080;7.428;2024-03-23T15:26:16;8.70;99.90
13186;DHT22;6658;53.080;7.428;2024-03-23T15:28:42;8.70;99.90
13186;DHT22;6658;53.080;7.428;2024-03-23T15:31:23;8.70;99.90
13186;DHT22;6658;53.080;7.428;2024-03-23T15:33:49;8.60;99.90
13186;DHT22;6658;53.080;7.428;2024-03-23T15:36:15;8.70;99.90
13186;DHT22;6658;53.080;7.428;2024-03-23T15:38:41;8.70;99.90
13186;DHT22;6658;53.080;7.428;2024-03-23T15:41:08;8.80;99.90
13186;DHT22;6658;53.080;7.428;2024-03-23T15:43:34;8.80;99.90
13186;DHT22;6658;53.080;7.428;2024-03-23T15:46:01;8.80;99.90
13186;DHT22;6658;53.080;7.428;2024-03-23T15:48:29;8.80;99.90
13186;DHT22;6658;53.080;7.428;2024-03-23T15:53:22;8.80;99.90
13186;DHT22;6658;53.080;7.428;2024-03-23T15:55:55;8.80;99.90
13186;DHT22;6658;53.080;7.428;2024-03-23T15:58:21;8.70;99.90
13186;DHT22;6658;53.080;7.428;2024-03-23T16:01:01;8.70;99.90
13186;DHT22;6658;53.080;7.428;2024-03-23T16:03:28;8.70;99.90
13186;DHT22;6658;53.080;7.428;2024-03-23T16:05:55;8.70;99.90
13186;DHT22;6658;53.080;7.428;2024-03-23T16:08:21;8.70;99.90
13186;DHT22;6658;53.080;7.428;2024-03-23T16:10:48;8.70;99.90
13186;DHT22;6658;53.080;7.428;2024-03-23T16:13:13;8.80;99.90
13186;DHT22;6658;53.080;7.428;2024-03-23T16:15:39;9.00;99.90
13186;DHT22;6658;53.080;7.428;2024-03-23T16:18:06;9.10;99.90
13186;DHT22;6658;53.080;7.428;2024-03-23T16:20:31;9.00;99.90
13186;DHT22;6658;53.080;7.428;2024-03-23T16:23:02;8.90;99.90
13186;DHT22;6658;53.080;7.428;2024-03-23T16:25:28;8.60;99.90
13186;DHT22;6658;53.080;7.428;2024-03-23T16:27:54;8.60;99.90
13186;DHT22;6658;53.080;7.428;2024-03-23T16:30:20;8.60;99.90
13186;DHT22;6658;53.080;7.428;2024-03-23T16:32:46;8.50;99.90
13186;DHT22;6658;53.080;7.428;2024-03-23T16:35:13;8.40;99.90
13186;DHT22;6658;53.080;7.428;2024-03-23T16:37:40;8.20;99.90
13186;DHT22;6658;53.080;7.428;2024-03-23T16:40:06;8.20;99.90
13186;DHT22;6658;53.080;7.428;2024-03-23T16:42:35;8.20;99.90
13186;DHT22;6658;53.080;7.428;2024-03-23T16:45:01;8.20;99.90
13186;DHT22;6658;53.080;7.428;2024-03-23T16:47:26;8.00;99.90
13186;DHT22;6658;53.080;7.428;2024-03-23T16:49:53;8.00;99.90
13186;DHT22;6658;53.080;7.428;2024-03-23T16:52:19;7.90;99.90
13186;DHT22;6658;53.080;7.428;2024-03-23T16:54:45;7.80;99.90
13186;DHT22;6658;53.080;7.428;2024-03-23T16:57:11;7.70;99.90
13186;DHT22;6658;53.080;7.428;2024-03-23T16:59:37;7.60;99.90
13186;DHT22;6658;53.080;7.428;2024-03-23T17:02:02;7.50;99.90
13186;DHT22;6658;53.080;7.428;2024-03-23T17:04:28;7.40;99.90
13186;DHT22;6658;53.080;7.428;2024-03-23T17:06:54;7.30;99.90
13186;DHT22;6658;53.080;7.428;2024-03-23T17:09:21;7.30;99.90
13186;DHT22;6658;53.080;7.428;2024-03-23T17:11:47;7.20;99.90